<?xml version="1.0" encoding="UTF-8"?>
<gpx xmlns="http://www.topografix.com/GPX/1/1"
     creator="GpsDumpMac 0.27"
     version="1.1"
     xmlns:xsi="http://www.w3.org/2001/XMLSchema-instance"
     xsi:schemaLocation="http://www.topografix.com/GPX/1/1 http://www.topografix.com/GPX/1/1/gpx.xsd">
  <metadata>
    <link href="http://www.gethome.no/stein.sorensen/">
      <text>GPS dump for www.flightlog.org</text>
    </link>
    <time>2013-04-07T17:58:23Z</time>
    <bounds minlat="42.755433" minlon="-2.369167" maxlat="42.787800" maxlon="-2.211817"/>
  </metadata>
  <trk>
    <name>Track 001</name>
    <trkseg>
      <trkpt lat="42.782883" lon="-2.212100">
        <ele>964.0</ele>
        <time>2013-04-03T15:13:17Z</time>
      </trkpt>
      <trkpt lat="42.782883" lon="-2.212100">
        <ele>964.0</ele>
        <time>2013-04-03T15:13:27Z</time>
      </trkpt>
      <trkpt lat="42.782883" lon="-2.212100">
        <ele>964.0</ele>
        <time>2013-04-03T15:13:37Z</time>
      </trkpt>
      <trkpt lat="42.782900" lon="-2.212133">
        <ele>964.0</ele>
        <time>2013-04-03T15:13:47Z</time>
      </trkpt>
      <trkpt lat="42.782917" lon="-2.212133">
        <ele>964.0</ele>
        <time>2013-04-03T15:13:57Z</time>
      </trkpt>
      <trkpt lat="42.782867" lon="-2.212083">
        <ele>962.0</ele>
        <time>2013-04-03T15:14:07Z</time>
      </trkpt>
      <trkpt lat="42.782883" lon="-2.212083">
        <ele>960.0</ele>
        <time>2013-04-03T15:14:17Z</time>
      </trkpt>
      <trkpt lat="42.782883" lon="-2.212083">
        <ele>962.0</ele>
        <time>2013-04-03T15:14:27Z</time>
      </trkpt>
      <trkpt lat="42.782883" lon="-2.212083">
        <ele>962.0</ele>
        <time>2013-04-03T15:14:37Z</time>
      </trkpt>
      <trkpt lat="42.782900" lon="-2.212083">
        <ele>960.0</ele>
        <time>2013-04-03T15:14:47Z</time>
      </trkpt>
      <trkpt lat="42.782933" lon="-2.212100">
        <ele>958.0</ele>
        <time>2013-04-03T15:14:57Z</time>
      </trkpt>
      <trkpt lat="42.782933" lon="-2.212100">
        <ele>956.0</ele>
        <time>2013-04-03T15:15:07Z</time>
      </trkpt>
      <trkpt lat="42.782950" lon="-2.212133">
        <ele>955.0</ele>
        <time>2013-04-03T15:15:17Z</time>
      </trkpt>
      <trkpt lat="42.782917" lon="-2.212100">
        <ele>955.0</ele>
        <time>2013-04-03T15:15:27Z</time>
      </trkpt>
      <trkpt lat="42.782883" lon="-2.212100">
        <ele>954.0</ele>
        <time>2013-04-03T15:15:37Z</time>
      </trkpt>
      <trkpt lat="42.782917" lon="-2.212133">
        <ele>954.0</ele>
        <time>2013-04-03T15:15:47Z</time>
      </trkpt>
      <trkpt lat="42.782917" lon="-2.212150">
        <ele>954.0</ele>
        <time>2013-04-03T15:15:57Z</time>
      </trkpt>
      <trkpt lat="42.782867" lon="-2.212100">
        <ele>955.0</ele>
        <time>2013-04-03T15:16:07Z</time>
      </trkpt>
      <trkpt lat="42.782867" lon="-2.212100">
        <ele>956.0</ele>
        <time>2013-04-03T15:16:17Z</time>
      </trkpt>
      <trkpt lat="42.782833" lon="-2.212100">
        <ele>958.0</ele>
        <time>2013-04-03T15:16:27Z</time>
      </trkpt>
      <trkpt lat="42.782850" lon="-2.212100">
        <ele>960.0</ele>
        <time>2013-04-03T15:16:37Z</time>
      </trkpt>
      <trkpt lat="42.782850" lon="-2.212117">
        <ele>961.0</ele>
        <time>2013-04-03T15:16:47Z</time>
      </trkpt>
      <trkpt lat="42.782850" lon="-2.212117">
        <ele>963.0</ele>
        <time>2013-04-03T15:16:57Z</time>
      </trkpt>
      <trkpt lat="42.782883" lon="-2.212150">
        <ele>963.0</ele>
        <time>2013-04-03T15:17:07Z</time>
      </trkpt>
      <trkpt lat="42.782867" lon="-2.212117">
        <ele>963.0</ele>
        <time>2013-04-03T15:17:17Z</time>
      </trkpt>
      <trkpt lat="42.782867" lon="-2.212100">
        <ele>963.0</ele>
        <time>2013-04-03T15:17:27Z</time>
      </trkpt>
      <trkpt lat="42.782917" lon="-2.212067">
        <ele>962.0</ele>
        <time>2013-04-03T15:17:37Z</time>
      </trkpt>
      <trkpt lat="42.782667" lon="-2.212033">
        <ele>961.0</ele>
        <time>2013-04-03T15:17:47Z</time>
      </trkpt>
      <trkpt lat="42.782383" lon="-2.212617">
        <ele>962.0</ele>
        <time>2013-04-03T15:17:57Z</time>
      </trkpt>
      <trkpt lat="42.782400" lon="-2.212967">
        <ele>965.0</ele>
        <time>2013-04-03T15:18:07Z</time>
      </trkpt>
      <trkpt lat="42.782733" lon="-2.212583">
        <ele>965.0</ele>
        <time>2013-04-03T15:18:17Z</time>
      </trkpt>
      <trkpt lat="42.782833" lon="-2.212150">
        <ele>967.0</ele>
        <time>2013-04-03T15:18:27Z</time>
      </trkpt>
      <trkpt lat="42.782533" lon="-2.212567">
        <ele>968.0</ele>
        <time>2013-04-03T15:18:37Z</time>
      </trkpt>
      <trkpt lat="42.782250" lon="-2.212950">
        <ele>969.0</ele>
        <time>2013-04-03T15:18:47Z</time>
      </trkpt>
      <trkpt lat="42.782583" lon="-2.212467">
        <ele>970.0</ele>
        <time>2013-04-03T15:18:57Z</time>
      </trkpt>
      <trkpt lat="42.782667" lon="-2.211817">
        <ele>972.0</ele>
        <time>2013-04-03T15:19:07Z</time>
      </trkpt>
      <trkpt lat="42.782467" lon="-2.212033">
        <ele>975.0</ele>
        <time>2013-04-03T15:19:17Z</time>
      </trkpt>
      <trkpt lat="42.782200" lon="-2.213400">
        <ele>980.0</ele>
        <time>2013-04-03T15:19:27Z</time>
      </trkpt>
      <trkpt lat="42.781933" lon="-2.214717">
        <ele>985.0</ele>
        <time>2013-04-03T15:19:37Z</time>
      </trkpt>
      <trkpt lat="42.781967" lon="-2.216083">
        <ele>991.0</ele>
        <time>2013-04-03T15:19:47Z</time>
      </trkpt>
      <trkpt lat="42.782250" lon="-2.217483">
        <ele>995.0</ele>
        <time>2013-04-03T15:19:57Z</time>
      </trkpt>
      <trkpt lat="42.782600" lon="-2.218867">
        <ele>998.0</ele>
        <time>2013-04-03T15:20:07Z</time>
      </trkpt>
      <trkpt lat="42.782867" lon="-2.220217">
        <ele>1001.0</ele>
        <time>2013-04-03T15:20:17Z</time>
      </trkpt>
      <trkpt lat="42.782917" lon="-2.221500">
        <ele>1006.0</ele>
        <time>2013-04-03T15:20:27Z</time>
      </trkpt>
      <trkpt lat="42.782750" lon="-2.222200">
        <ele>1011.0</ele>
        <time>2013-04-03T15:20:37Z</time>
      </trkpt>
      <trkpt lat="42.782933" lon="-2.221700">
        <ele>1015.0</ele>
        <time>2013-04-03T15:20:47Z</time>
      </trkpt>
      <trkpt lat="42.782733" lon="-2.222833">
        <ele>1025.0</ele>
        <time>2013-04-03T15:20:57Z</time>
      </trkpt>
      <trkpt lat="42.782750" lon="-2.224383">
        <ele>1033.0</ele>
        <time>2013-04-03T15:21:07Z</time>
      </trkpt>
      <trkpt lat="42.782950" lon="-2.226033">
        <ele>1037.0</ele>
        <time>2013-04-03T15:21:17Z</time>
      </trkpt>
      <trkpt lat="42.783133" lon="-2.227750">
        <ele>1038.0</ele>
        <time>2013-04-03T15:21:27Z</time>
      </trkpt>
      <trkpt lat="42.783400" lon="-2.229450">
        <ele>1038.0</ele>
        <time>2013-04-03T15:21:37Z</time>
      </trkpt>
      <trkpt lat="42.783617" lon="-2.231150">
        <ele>1037.0</ele>
        <time>2013-04-03T15:21:47Z</time>
      </trkpt>
      <trkpt lat="42.783500" lon="-2.232517">
        <ele>1037.0</ele>
        <time>2013-04-03T15:21:57Z</time>
      </trkpt>
      <trkpt lat="42.783117" lon="-2.233000">
        <ele>1041.0</ele>
        <time>2013-04-03T15:22:07Z</time>
      </trkpt>
      <trkpt lat="42.783183" lon="-2.232800">
        <ele>1045.0</ele>
        <time>2013-04-03T15:22:18Z</time>
      </trkpt>
      <trkpt lat="42.783300" lon="-2.232583">
        <ele>1049.0</ele>
        <time>2013-04-03T15:22:28Z</time>
      </trkpt>
      <trkpt lat="42.783017" lon="-2.232617">
        <ele>1055.0</ele>
        <time>2013-04-03T15:22:38Z</time>
      </trkpt>
      <trkpt lat="42.782700" lon="-2.232750">
        <ele>1062.0</ele>
        <time>2013-04-03T15:22:48Z</time>
      </trkpt>
      <trkpt lat="42.782300" lon="-2.233117">
        <ele>1070.0</ele>
        <time>2013-04-03T15:22:58Z</time>
      </trkpt>
      <trkpt lat="42.781883" lon="-2.233450">
        <ele>1076.0</ele>
        <time>2013-04-03T15:23:08Z</time>
      </trkpt>
      <trkpt lat="42.781500" lon="-2.233650">
        <ele>1081.0</ele>
        <time>2013-04-03T15:23:18Z</time>
      </trkpt>
      <trkpt lat="42.781100" lon="-2.233917">
        <ele>1087.0</ele>
        <time>2013-04-03T15:23:28Z</time>
      </trkpt>
      <trkpt lat="42.780750" lon="-2.234100">
        <ele>1094.0</ele>
        <time>2013-04-03T15:23:38Z</time>
      </trkpt>
      <trkpt lat="42.780500" lon="-2.234233">
        <ele>1102.0</ele>
        <time>2013-04-03T15:23:48Z</time>
      </trkpt>
      <trkpt lat="42.780283" lon="-2.234317">
        <ele>1109.0</ele>
        <time>2013-04-03T15:23:58Z</time>
      </trkpt>
      <trkpt lat="42.780050" lon="-2.234450">
        <ele>1113.0</ele>
        <time>2013-04-03T15:24:08Z</time>
      </trkpt>
      <trkpt lat="42.779800" lon="-2.234683">
        <ele>1115.0</ele>
        <time>2013-04-03T15:24:18Z</time>
      </trkpt>
      <trkpt lat="42.779533" lon="-2.234867">
        <ele>1116.0</ele>
        <time>2013-04-03T15:24:28Z</time>
      </trkpt>
      <trkpt lat="42.779267" lon="-2.234983">
        <ele>1114.0</ele>
        <time>2013-04-03T15:24:38Z</time>
      </trkpt>
      <trkpt lat="42.778983" lon="-2.234950">
        <ele>1112.0</ele>
        <time>2013-04-03T15:24:48Z</time>
      </trkpt>
      <trkpt lat="42.778800" lon="-2.234850">
        <ele>1109.0</ele>
        <time>2013-04-03T15:24:58Z</time>
      </trkpt>
      <trkpt lat="42.778850" lon="-2.234583">
        <ele>1107.0</ele>
        <time>2013-04-03T15:25:08Z</time>
      </trkpt>
      <trkpt lat="42.778917" lon="-2.234300">
        <ele>1107.0</ele>
        <time>2013-04-03T15:25:18Z</time>
      </trkpt>
      <trkpt lat="42.778883" lon="-2.233983">
        <ele>1108.0</ele>
        <time>2013-04-03T15:25:28Z</time>
      </trkpt>
      <trkpt lat="42.778800" lon="-2.233667">
        <ele>1110.0</ele>
        <time>2013-04-03T15:25:38Z</time>
      </trkpt>
      <trkpt lat="42.778950" lon="-2.233300">
        <ele>1111.0</ele>
        <time>2013-04-03T15:25:48Z</time>
      </trkpt>
      <trkpt lat="42.779033" lon="-2.232933">
        <ele>1112.0</ele>
        <time>2013-04-03T15:25:58Z</time>
      </trkpt>
      <trkpt lat="42.779133" lon="-2.232667">
        <ele>1114.0</ele>
        <time>2013-04-03T15:26:08Z</time>
      </trkpt>
      <trkpt lat="42.779267" lon="-2.232383">
        <ele>1117.0</ele>
        <time>2013-04-03T15:26:18Z</time>
      </trkpt>
      <trkpt lat="42.779350" lon="-2.233400">
        <ele>1123.0</ele>
        <time>2013-04-03T15:26:28Z</time>
      </trkpt>
      <trkpt lat="42.780033" lon="-2.233450">
        <ele>1129.0</ele>
        <time>2013-04-03T15:26:38Z</time>
      </trkpt>
      <trkpt lat="42.780233" lon="-2.233183">
        <ele>1132.0</ele>
        <time>2013-04-03T15:26:48Z</time>
      </trkpt>
      <trkpt lat="42.780333" lon="-2.232917">
        <ele>1133.0</ele>
        <time>2013-04-03T15:26:58Z</time>
      </trkpt>
      <trkpt lat="42.780533" lon="-2.232583">
        <ele>1135.0</ele>
        <time>2013-04-03T15:27:08Z</time>
      </trkpt>
      <trkpt lat="42.780683" lon="-2.232300">
        <ele>1137.0</ele>
        <time>2013-04-03T15:27:18Z</time>
      </trkpt>
      <trkpt lat="42.780867" lon="-2.231950">
        <ele>1140.0</ele>
        <time>2013-04-03T15:27:28Z</time>
      </trkpt>
      <trkpt lat="42.781067" lon="-2.231583">
        <ele>1142.0</ele>
        <time>2013-04-03T15:27:38Z</time>
      </trkpt>
      <trkpt lat="42.781267" lon="-2.231250">
        <ele>1145.0</ele>
        <time>2013-04-03T15:27:48Z</time>
      </trkpt>
      <trkpt lat="42.781417" lon="-2.230867">
        <ele>1146.0</ele>
        <time>2013-04-03T15:27:58Z</time>
      </trkpt>
      <trkpt lat="42.781583" lon="-2.230400">
        <ele>1148.0</ele>
        <time>2013-04-03T15:28:08Z</time>
      </trkpt>
      <trkpt lat="42.781783" lon="-2.229917">
        <ele>1150.0</ele>
        <time>2013-04-03T15:28:18Z</time>
      </trkpt>
      <trkpt lat="42.782033" lon="-2.229533">
        <ele>1151.0</ele>
        <time>2013-04-03T15:28:28Z</time>
      </trkpt>
      <trkpt lat="42.782217" lon="-2.229133">
        <ele>1151.0</ele>
        <time>2013-04-03T15:28:38Z</time>
      </trkpt>
      <trkpt lat="42.782400" lon="-2.228850">
        <ele>1150.0</ele>
        <time>2013-04-03T15:28:48Z</time>
      </trkpt>
      <trkpt lat="42.782433" lon="-2.228550">
        <ele>1150.0</ele>
        <time>2013-04-03T15:28:58Z</time>
      </trkpt>
      <trkpt lat="42.782467" lon="-2.228150">
        <ele>1149.0</ele>
        <time>2013-04-03T15:29:08Z</time>
      </trkpt>
      <trkpt lat="42.782533" lon="-2.227700">
        <ele>1148.0</ele>
        <time>2013-04-03T15:29:18Z</time>
      </trkpt>
      <trkpt lat="42.782683" lon="-2.227333">
        <ele>1148.0</ele>
        <time>2013-04-03T15:29:28Z</time>
      </trkpt>
      <trkpt lat="42.782733" lon="-2.227033">
        <ele>1150.0</ele>
        <time>2013-04-03T15:29:38Z</time>
      </trkpt>
      <trkpt lat="42.782767" lon="-2.226867">
        <ele>1155.0</ele>
        <time>2013-04-03T15:29:48Z</time>
      </trkpt>
      <trkpt lat="42.782700" lon="-2.226717">
        <ele>1162.0</ele>
        <time>2013-04-03T15:29:58Z</time>
      </trkpt>
      <trkpt lat="42.782633" lon="-2.226517">
        <ele>1171.0</ele>
        <time>2013-04-03T15:30:08Z</time>
      </trkpt>
      <trkpt lat="42.782967" lon="-2.227183">
        <ele>1183.0</ele>
        <time>2013-04-03T15:30:18Z</time>
      </trkpt>
      <trkpt lat="42.783100" lon="-2.226933">
        <ele>1190.0</ele>
        <time>2013-04-03T15:30:28Z</time>
      </trkpt>
      <trkpt lat="42.783033" lon="-2.226700">
        <ele>1197.0</ele>
        <time>2013-04-03T15:30:39Z</time>
      </trkpt>
      <trkpt lat="42.783083" lon="-2.226383">
        <ele>1202.0</ele>
        <time>2013-04-03T15:30:49Z</time>
      </trkpt>
      <trkpt lat="42.783217" lon="-2.226050">
        <ele>1205.0</ele>
        <time>2013-04-03T15:30:59Z</time>
      </trkpt>
      <trkpt lat="42.783133" lon="-2.225817">
        <ele>1206.0</ele>
        <time>2013-04-03T15:31:09Z</time>
      </trkpt>
      <trkpt lat="42.783033" lon="-2.225667">
        <ele>1209.0</ele>
        <time>2013-04-03T15:31:19Z</time>
      </trkpt>
      <trkpt lat="42.782950" lon="-2.225517">
        <ele>1211.0</ele>
        <time>2013-04-03T15:31:29Z</time>
      </trkpt>
      <trkpt lat="42.783000" lon="-2.225433">
        <ele>1215.0</ele>
        <time>2013-04-03T15:31:39Z</time>
      </trkpt>
      <trkpt lat="42.783067" lon="-2.225333">
        <ele>1217.0</ele>
        <time>2013-04-03T15:31:49Z</time>
      </trkpt>
      <trkpt lat="42.782867" lon="-2.225483">
        <ele>1217.0</ele>
        <time>2013-04-03T15:31:59Z</time>
      </trkpt>
      <trkpt lat="42.782600" lon="-2.225900">
        <ele>1217.0</ele>
        <time>2013-04-03T15:32:09Z</time>
      </trkpt>
      <trkpt lat="42.782383" lon="-2.226200">
        <ele>1215.0</ele>
        <time>2013-04-03T15:32:19Z</time>
      </trkpt>
      <trkpt lat="42.782133" lon="-2.226417">
        <ele>1212.0</ele>
        <time>2013-04-03T15:32:29Z</time>
      </trkpt>
      <trkpt lat="42.781917" lon="-2.226483">
        <ele>1210.0</ele>
        <time>2013-04-03T15:32:39Z</time>
      </trkpt>
      <trkpt lat="42.781817" lon="-2.226583">
        <ele>1210.0</ele>
        <time>2013-04-03T15:32:49Z</time>
      </trkpt>
      <trkpt lat="42.781650" lon="-2.226817">
        <ele>1209.0</ele>
        <time>2013-04-03T15:32:59Z</time>
      </trkpt>
      <trkpt lat="42.781517" lon="-2.227083">
        <ele>1207.0</ele>
        <time>2013-04-03T15:33:09Z</time>
      </trkpt>
      <trkpt lat="42.781267" lon="-2.227450">
        <ele>1203.0</ele>
        <time>2013-04-03T15:33:19Z</time>
      </trkpt>
      <trkpt lat="42.781000" lon="-2.227950">
        <ele>1198.0</ele>
        <time>2013-04-03T15:33:29Z</time>
      </trkpt>
      <trkpt lat="42.780800" lon="-2.228517">
        <ele>1194.0</ele>
        <time>2013-04-03T15:33:39Z</time>
      </trkpt>
      <trkpt lat="42.780567" lon="-2.229133">
        <ele>1189.0</ele>
        <time>2013-04-03T15:33:49Z</time>
      </trkpt>
      <trkpt lat="42.780367" lon="-2.229800">
        <ele>1184.0</ele>
        <time>2013-04-03T15:33:59Z</time>
      </trkpt>
      <trkpt lat="42.780217" lon="-2.230617">
        <ele>1179.0</ele>
        <time>2013-04-03T15:34:09Z</time>
      </trkpt>
      <trkpt lat="42.779983" lon="-2.231483">
        <ele>1174.0</ele>
        <time>2013-04-03T15:34:19Z</time>
      </trkpt>
      <trkpt lat="42.779683" lon="-2.232283">
        <ele>1172.0</ele>
        <time>2013-04-03T15:34:29Z</time>
      </trkpt>
      <trkpt lat="42.779400" lon="-2.233183">
        <ele>1172.0</ele>
        <time>2013-04-03T15:34:39Z</time>
      </trkpt>
      <trkpt lat="42.779117" lon="-2.233933">
        <ele>1172.0</ele>
        <time>2013-04-03T15:34:49Z</time>
      </trkpt>
      <trkpt lat="42.778783" lon="-2.234817">
        <ele>1173.0</ele>
        <time>2013-04-03T15:34:59Z</time>
      </trkpt>
      <trkpt lat="42.778517" lon="-2.235867">
        <ele>1175.0</ele>
        <time>2013-04-03T15:35:09Z</time>
      </trkpt>
      <trkpt lat="42.778283" lon="-2.236317">
        <ele>1177.0</ele>
        <time>2013-04-03T15:35:19Z</time>
      </trkpt>
      <trkpt lat="42.778167" lon="-2.236200">
        <ele>1180.0</ele>
        <time>2013-04-03T15:35:29Z</time>
      </trkpt>
      <trkpt lat="42.778100" lon="-2.236083">
        <ele>1181.0</ele>
        <time>2013-04-03T15:35:39Z</time>
      </trkpt>
      <trkpt lat="42.777983" lon="-2.236083">
        <ele>1183.0</ele>
        <time>2013-04-03T15:35:49Z</time>
      </trkpt>
      <trkpt lat="42.777933" lon="-2.235967">
        <ele>1185.0</ele>
        <time>2013-04-03T15:35:59Z</time>
      </trkpt>
      <trkpt lat="42.777867" lon="-2.235917">
        <ele>1189.0</ele>
        <time>2013-04-03T15:36:09Z</time>
      </trkpt>
      <trkpt lat="42.778517" lon="-2.237017">
        <ele>1201.0</ele>
        <time>2013-04-03T15:36:19Z</time>
      </trkpt>
      <trkpt lat="42.779117" lon="-2.236817">
        <ele>1212.0</ele>
        <time>2013-04-03T15:36:29Z</time>
      </trkpt>
      <trkpt lat="42.779200" lon="-2.236533">
        <ele>1221.0</ele>
        <time>2013-04-03T15:36:39Z</time>
      </trkpt>
      <trkpt lat="42.779367" lon="-2.237383">
        <ele>1237.0</ele>
        <time>2013-04-03T15:36:49Z</time>
      </trkpt>
      <trkpt lat="42.780133" lon="-2.237367">
        <ele>1251.0</ele>
        <time>2013-04-03T15:36:59Z</time>
      </trkpt>
      <trkpt lat="42.780300" lon="-2.237233">
        <ele>1262.0</ele>
        <time>2013-04-03T15:37:09Z</time>
      </trkpt>
      <trkpt lat="42.780383" lon="-2.237783">
        <ele>1280.0</ele>
        <time>2013-04-03T15:37:19Z</time>
      </trkpt>
      <trkpt lat="42.781433" lon="-2.238217">
        <ele>1298.0</ele>
        <time>2013-04-03T15:37:29Z</time>
      </trkpt>
      <trkpt lat="42.781683" lon="-2.237950">
        <ele>1308.0</ele>
        <time>2013-04-03T15:37:39Z</time>
      </trkpt>
      <trkpt lat="42.781650" lon="-2.238000">
        <ele>1317.0</ele>
        <time>2013-04-03T15:37:49Z</time>
      </trkpt>
      <trkpt lat="42.782117" lon="-2.239083">
        <ele>1330.0</ele>
        <time>2013-04-03T15:37:59Z</time>
      </trkpt>
      <trkpt lat="42.782733" lon="-2.238950">
        <ele>1339.0</ele>
        <time>2013-04-03T15:38:09Z</time>
      </trkpt>
      <trkpt lat="42.782650" lon="-2.239367">
        <ele>1346.0</ele>
        <time>2013-04-03T15:38:19Z</time>
      </trkpt>
      <trkpt lat="42.783033" lon="-2.240733">
        <ele>1354.0</ele>
        <time>2013-04-03T15:38:29Z</time>
      </trkpt>
      <trkpt lat="42.783467" lon="-2.242383">
        <ele>1357.0</ele>
        <time>2013-04-03T15:38:40Z</time>
      </trkpt>
      <trkpt lat="42.783767" lon="-2.243767">
        <ele>1359.0</ele>
        <time>2013-04-03T15:38:50Z</time>
      </trkpt>
      <trkpt lat="42.784067" lon="-2.245117">
        <ele>1360.0</ele>
        <time>2013-04-03T15:39:00Z</time>
      </trkpt>
      <trkpt lat="42.784300" lon="-2.246333">
        <ele>1357.0</ele>
        <time>2013-04-03T15:39:10Z</time>
      </trkpt>
      <trkpt lat="42.784417" lon="-2.247450">
        <ele>1353.0</ele>
        <time>2013-04-03T15:39:20Z</time>
      </trkpt>
      <trkpt lat="42.784583" lon="-2.248700">
        <ele>1350.0</ele>
        <time>2013-04-03T15:39:30Z</time>
      </trkpt>
      <trkpt lat="42.784817" lon="-2.250067">
        <ele>1345.0</ele>
        <time>2013-04-03T15:39:40Z</time>
      </trkpt>
      <trkpt lat="42.785100" lon="-2.251567">
        <ele>1341.0</ele>
        <time>2013-04-03T15:39:50Z</time>
      </trkpt>
      <trkpt lat="42.785400" lon="-2.253100">
        <ele>1336.0</ele>
        <time>2013-04-03T15:40:00Z</time>
      </trkpt>
      <trkpt lat="42.785800" lon="-2.254633">
        <ele>1331.0</ele>
        <time>2013-04-03T15:40:10Z</time>
      </trkpt>
      <trkpt lat="42.786250" lon="-2.256217">
        <ele>1322.0</ele>
        <time>2013-04-03T15:40:20Z</time>
      </trkpt>
      <trkpt lat="42.786800" lon="-2.257917">
        <ele>1310.0</ele>
        <time>2013-04-03T15:40:30Z</time>
      </trkpt>
      <trkpt lat="42.787250" lon="-2.259467">
        <ele>1299.0</ele>
        <time>2013-04-03T15:40:40Z</time>
      </trkpt>
      <trkpt lat="42.787583" lon="-2.260983">
        <ele>1289.0</ele>
        <time>2013-04-03T15:40:50Z</time>
      </trkpt>
      <trkpt lat="42.787800" lon="-2.262400">
        <ele>1278.0</ele>
        <time>2013-04-03T15:41:00Z</time>
      </trkpt>
      <trkpt lat="42.787800" lon="-2.263767">
        <ele>1269.0</ele>
        <time>2013-04-03T15:41:10Z</time>
      </trkpt>
      <trkpt lat="42.787550" lon="-2.264817">
        <ele>1263.0</ele>
        <time>2013-04-03T15:41:20Z</time>
      </trkpt>
      <trkpt lat="42.787417" lon="-2.265867">
        <ele>1257.0</ele>
        <time>2013-04-03T15:41:30Z</time>
      </trkpt>
      <trkpt lat="42.787333" lon="-2.267050">
        <ele>1252.0</ele>
        <time>2013-04-03T15:41:40Z</time>
      </trkpt>
      <trkpt lat="42.787167" lon="-2.268200">
        <ele>1246.0</ele>
        <time>2013-04-03T15:41:50Z</time>
      </trkpt>
      <trkpt lat="42.786983" lon="-2.269233">
        <ele>1242.0</ele>
        <time>2013-04-03T15:42:00Z</time>
      </trkpt>
      <trkpt lat="42.786833" lon="-2.270317">
        <ele>1239.0</ele>
        <time>2013-04-03T15:42:10Z</time>
      </trkpt>
      <trkpt lat="42.786650" lon="-2.271367">
        <ele>1235.0</ele>
        <time>2013-04-03T15:42:20Z</time>
      </trkpt>
      <trkpt lat="42.786400" lon="-2.272417">
        <ele>1231.0</ele>
        <time>2013-04-03T15:42:30Z</time>
      </trkpt>
      <trkpt lat="42.786117" lon="-2.273467">
        <ele>1228.0</ele>
        <time>2013-04-03T15:42:40Z</time>
      </trkpt>
      <trkpt lat="42.785833" lon="-2.274583">
        <ele>1227.0</ele>
        <time>2013-04-03T15:42:50Z</time>
      </trkpt>
      <trkpt lat="42.785533" lon="-2.275700">
        <ele>1227.0</ele>
        <time>2013-04-03T15:43:00Z</time>
      </trkpt>
      <trkpt lat="42.785267" lon="-2.276767">
        <ele>1228.0</ele>
        <time>2013-04-03T15:43:10Z</time>
      </trkpt>
      <trkpt lat="42.784883" lon="-2.277633">
        <ele>1231.0</ele>
        <time>2013-04-03T15:43:20Z</time>
      </trkpt>
      <trkpt lat="42.784417" lon="-2.278200">
        <ele>1236.0</ele>
        <time>2013-04-03T15:43:30Z</time>
      </trkpt>
      <trkpt lat="42.784133" lon="-2.278483">
        <ele>1240.0</ele>
        <time>2013-04-03T15:43:40Z</time>
      </trkpt>
      <trkpt lat="42.783883" lon="-2.278600">
        <ele>1244.0</ele>
        <time>2013-04-03T15:43:50Z</time>
      </trkpt>
      <trkpt lat="42.783617" lon="-2.278567">
        <ele>1248.0</ele>
        <time>2013-04-03T15:44:00Z</time>
      </trkpt>
      <trkpt lat="42.783417" lon="-2.278417">
        <ele>1250.0</ele>
        <time>2013-04-03T15:44:10Z</time>
      </trkpt>
      <trkpt lat="42.783250" lon="-2.278333">
        <ele>1250.0</ele>
        <time>2013-04-03T15:44:20Z</time>
      </trkpt>
      <trkpt lat="42.783100" lon="-2.278183">
        <ele>1248.0</ele>
        <time>2013-04-03T15:44:30Z</time>
      </trkpt>
      <trkpt lat="42.782917" lon="-2.277967">
        <ele>1245.0</ele>
        <time>2013-04-03T15:44:40Z</time>
      </trkpt>
      <trkpt lat="42.782800" lon="-2.277650">
        <ele>1243.0</ele>
        <time>2013-04-03T15:44:50Z</time>
      </trkpt>
      <trkpt lat="42.782700" lon="-2.277300">
        <ele>1242.0</ele>
        <time>2013-04-03T15:45:00Z</time>
      </trkpt>
      <trkpt lat="42.782633" lon="-2.276850">
        <ele>1242.0</ele>
        <time>2013-04-03T15:45:10Z</time>
      </trkpt>
      <trkpt lat="42.782533" lon="-2.276417">
        <ele>1242.0</ele>
        <time>2013-04-03T15:45:20Z</time>
      </trkpt>
      <trkpt lat="42.782417" lon="-2.276033">
        <ele>1243.0</ele>
        <time>2013-04-03T15:45:30Z</time>
      </trkpt>
      <trkpt lat="42.782400" lon="-2.275733">
        <ele>1243.0</ele>
        <time>2013-04-03T15:45:40Z</time>
      </trkpt>
      <trkpt lat="42.782500" lon="-2.275400">
        <ele>1244.0</ele>
        <time>2013-04-03T15:45:50Z</time>
      </trkpt>
      <trkpt lat="42.782617" lon="-2.274967">
        <ele>1246.0</ele>
        <time>2013-04-03T15:46:00Z</time>
      </trkpt>
      <trkpt lat="42.782767" lon="-2.274617">
        <ele>1247.0</ele>
        <time>2013-04-03T15:46:10Z</time>
      </trkpt>
      <trkpt lat="42.782900" lon="-2.274300">
        <ele>1247.0</ele>
        <time>2013-04-03T15:46:20Z</time>
      </trkpt>
      <trkpt lat="42.783000" lon="-2.273967">
        <ele>1248.0</ele>
        <time>2013-04-03T15:46:30Z</time>
      </trkpt>
      <trkpt lat="42.783100" lon="-2.273667">
        <ele>1248.0</ele>
        <time>2013-04-03T15:46:40Z</time>
      </trkpt>
      <trkpt lat="42.783150" lon="-2.273550">
        <ele>1248.0</ele>
        <time>2013-04-03T15:46:50Z</time>
      </trkpt>
      <trkpt lat="42.783133" lon="-2.273083">
        <ele>1246.0</ele>
        <time>2013-04-03T15:47:01Z</time>
      </trkpt>
      <trkpt lat="42.783067" lon="-2.272717">
        <ele>1245.0</ele>
        <time>2013-04-03T15:47:11Z</time>
      </trkpt>
      <trkpt lat="42.783033" lon="-2.272467">
        <ele>1248.0</ele>
        <time>2013-04-03T15:47:21Z</time>
      </trkpt>
      <trkpt lat="42.783617" lon="-2.273533">
        <ele>1254.0</ele>
        <time>2013-04-03T15:47:31Z</time>
      </trkpt>
      <trkpt lat="42.784017" lon="-2.273250">
        <ele>1259.0</ele>
        <time>2013-04-03T15:47:41Z</time>
      </trkpt>
      <trkpt lat="42.783917" lon="-2.273850">
        <ele>1267.0</ele>
        <time>2013-04-03T15:47:51Z</time>
      </trkpt>
      <trkpt lat="42.784883" lon="-2.274817">
        <ele>1274.0</ele>
        <time>2013-04-03T15:48:01Z</time>
      </trkpt>
      <trkpt lat="42.785083" lon="-2.274383">
        <ele>1280.0</ele>
        <time>2013-04-03T15:48:11Z</time>
      </trkpt>
      <trkpt lat="42.784833" lon="-2.274450">
        <ele>1288.0</ele>
        <time>2013-04-03T15:48:21Z</time>
      </trkpt>
      <trkpt lat="42.785450" lon="-2.275567">
        <ele>1298.0</ele>
        <time>2013-04-03T15:48:31Z</time>
      </trkpt>
      <trkpt lat="42.785767" lon="-2.275317">
        <ele>1304.0</ele>
        <time>2013-04-03T15:48:41Z</time>
      </trkpt>
      <trkpt lat="42.785533" lon="-2.275383">
        <ele>1308.0</ele>
        <time>2013-04-03T15:48:51Z</time>
      </trkpt>
      <trkpt lat="42.785233" lon="-2.275383">
        <ele>1311.0</ele>
        <time>2013-04-03T15:49:01Z</time>
      </trkpt>
      <trkpt lat="42.785000" lon="-2.275417">
        <ele>1313.0</ele>
        <time>2013-04-03T15:49:11Z</time>
      </trkpt>
      <trkpt lat="42.784800" lon="-2.275467">
        <ele>1314.0</ele>
        <time>2013-04-03T15:49:21Z</time>
      </trkpt>
      <trkpt lat="42.784600" lon="-2.275533">
        <ele>1316.0</ele>
        <time>2013-04-03T15:49:31Z</time>
      </trkpt>
      <trkpt lat="42.784267" lon="-2.275700">
        <ele>1318.0</ele>
        <time>2013-04-03T15:49:41Z</time>
      </trkpt>
      <trkpt lat="42.783900" lon="-2.276083">
        <ele>1320.0</ele>
        <time>2013-04-03T15:49:51Z</time>
      </trkpt>
      <trkpt lat="42.783500" lon="-2.276700">
        <ele>1321.0</ele>
        <time>2013-04-03T15:50:01Z</time>
      </trkpt>
      <trkpt lat="42.783183" lon="-2.277350">
        <ele>1320.0</ele>
        <time>2013-04-03T15:50:11Z</time>
      </trkpt>
      <trkpt lat="42.782933" lon="-2.278133">
        <ele>1319.0</ele>
        <time>2013-04-03T15:50:21Z</time>
      </trkpt>
      <trkpt lat="42.782733" lon="-2.279000">
        <ele>1314.0</ele>
        <time>2013-04-03T15:50:31Z</time>
      </trkpt>
      <trkpt lat="42.782517" lon="-2.279950">
        <ele>1310.0</ele>
        <time>2013-04-03T15:50:41Z</time>
      </trkpt>
      <trkpt lat="42.782300" lon="-2.280883">
        <ele>1306.0</ele>
        <time>2013-04-03T15:50:51Z</time>
      </trkpt>
      <trkpt lat="42.782117" lon="-2.281950">
        <ele>1300.0</ele>
        <time>2013-04-03T15:51:01Z</time>
      </trkpt>
      <trkpt lat="42.781900" lon="-2.283100">
        <ele>1295.0</ele>
        <time>2013-04-03T15:51:11Z</time>
      </trkpt>
      <trkpt lat="42.781617" lon="-2.284067">
        <ele>1292.0</ele>
        <time>2013-04-03T15:51:21Z</time>
      </trkpt>
      <trkpt lat="42.781300" lon="-2.284933">
        <ele>1293.0</ele>
        <time>2013-04-03T15:51:31Z</time>
      </trkpt>
      <trkpt lat="42.780950" lon="-2.285883">
        <ele>1295.0</ele>
        <time>2013-04-03T15:51:41Z</time>
      </trkpt>
      <trkpt lat="42.780567" lon="-2.286917">
        <ele>1291.0</ele>
        <time>2013-04-03T15:51:51Z</time>
      </trkpt>
      <trkpt lat="42.780067" lon="-2.287833">
        <ele>1288.0</ele>
        <time>2013-04-03T15:52:01Z</time>
      </trkpt>
      <trkpt lat="42.779667" lon="-2.288783">
        <ele>1287.0</ele>
        <time>2013-04-03T15:52:11Z</time>
      </trkpt>
      <trkpt lat="42.779333" lon="-2.289900">
        <ele>1280.0</ele>
        <time>2013-04-03T15:52:21Z</time>
      </trkpt>
      <trkpt lat="42.778983" lon="-2.291050">
        <ele>1269.0</ele>
        <time>2013-04-03T15:52:31Z</time>
      </trkpt>
      <trkpt lat="42.778700" lon="-2.292283">
        <ele>1257.0</ele>
        <time>2013-04-03T15:52:41Z</time>
      </trkpt>
      <trkpt lat="42.778417" lon="-2.293450">
        <ele>1245.0</ele>
        <time>2013-04-03T15:52:51Z</time>
      </trkpt>
      <trkpt lat="42.778133" lon="-2.294483">
        <ele>1234.0</ele>
        <time>2013-04-03T15:53:01Z</time>
      </trkpt>
      <trkpt lat="42.777900" lon="-2.295400">
        <ele>1222.0</ele>
        <time>2013-04-03T15:53:11Z</time>
      </trkpt>
      <trkpt lat="42.777617" lon="-2.296317">
        <ele>1209.0</ele>
        <time>2013-04-03T15:53:21Z</time>
      </trkpt>
      <trkpt lat="42.777367" lon="-2.297250">
        <ele>1196.0</ele>
        <time>2013-04-03T15:53:31Z</time>
      </trkpt>
      <trkpt lat="42.777100" lon="-2.298183">
        <ele>1186.0</ele>
        <time>2013-04-03T15:53:41Z</time>
      </trkpt>
      <trkpt lat="42.776833" lon="-2.299083">
        <ele>1177.0</ele>
        <time>2013-04-03T15:53:51Z</time>
      </trkpt>
      <trkpt lat="42.776467" lon="-2.299917">
        <ele>1170.0</ele>
        <time>2013-04-03T15:54:01Z</time>
      </trkpt>
      <trkpt lat="42.776200" lon="-2.300500">
        <ele>1170.0</ele>
        <time>2013-04-03T15:54:11Z</time>
      </trkpt>
      <trkpt lat="42.775967" lon="-2.300750">
        <ele>1171.0</ele>
        <time>2013-04-03T15:54:21Z</time>
      </trkpt>
      <trkpt lat="42.776517" lon="-2.301817">
        <ele>1175.0</ele>
        <time>2013-04-03T15:54:31Z</time>
      </trkpt>
      <trkpt lat="42.776733" lon="-2.301783">
        <ele>1177.0</ele>
        <time>2013-04-03T15:54:41Z</time>
      </trkpt>
      <trkpt lat="42.776450" lon="-2.302050">
        <ele>1182.0</ele>
        <time>2013-04-03T15:54:51Z</time>
      </trkpt>
      <trkpt lat="42.776200" lon="-2.302183">
        <ele>1190.0</ele>
        <time>2013-04-03T15:55:02Z</time>
      </trkpt>
      <trkpt lat="42.775933" lon="-2.302750">
        <ele>1199.0</ele>
        <time>2013-04-03T15:55:12Z</time>
      </trkpt>
      <trkpt lat="42.775650" lon="-2.303350">
        <ele>1204.0</ele>
        <time>2013-04-03T15:55:22Z</time>
      </trkpt>
      <trkpt lat="42.775467" lon="-2.303233">
        <ele>1208.0</ele>
        <time>2013-04-03T15:55:32Z</time>
      </trkpt>
      <trkpt lat="42.775483" lon="-2.302817">
        <ele>1213.0</ele>
        <time>2013-04-03T15:55:42Z</time>
      </trkpt>
      <trkpt lat="42.775333" lon="-2.303217">
        <ele>1223.0</ele>
        <time>2013-04-03T15:55:52Z</time>
      </trkpt>
      <trkpt lat="42.775067" lon="-2.303950">
        <ele>1232.0</ele>
        <time>2013-04-03T15:56:02Z</time>
      </trkpt>
      <trkpt lat="42.775067" lon="-2.303700">
        <ele>1239.0</ele>
        <time>2013-04-03T15:56:12Z</time>
      </trkpt>
      <trkpt lat="42.775083" lon="-2.303483">
        <ele>1246.0</ele>
        <time>2013-04-03T15:56:22Z</time>
      </trkpt>
      <trkpt lat="42.775133" lon="-2.303333">
        <ele>1252.0</ele>
        <time>2013-04-03T15:56:32Z</time>
      </trkpt>
      <trkpt lat="42.774900" lon="-2.304067">
        <ele>1259.0</ele>
        <time>2013-04-03T15:56:42Z</time>
      </trkpt>
      <trkpt lat="42.774817" lon="-2.305650">
        <ele>1266.0</ele>
        <time>2013-04-03T15:56:52Z</time>
      </trkpt>
      <trkpt lat="42.774650" lon="-2.306200">
        <ele>1271.0</ele>
        <time>2013-04-03T15:57:02Z</time>
      </trkpt>
      <trkpt lat="42.774700" lon="-2.306000">
        <ele>1274.0</ele>
        <time>2013-04-03T15:57:12Z</time>
      </trkpt>
      <trkpt lat="42.774833" lon="-2.305783">
        <ele>1277.0</ele>
        <time>2013-04-03T15:57:22Z</time>
      </trkpt>
      <trkpt lat="42.775000" lon="-2.305533">
        <ele>1279.0</ele>
        <time>2013-04-03T15:57:32Z</time>
      </trkpt>
      <trkpt lat="42.775183" lon="-2.305233">
        <ele>1281.0</ele>
        <time>2013-04-03T15:57:42Z</time>
      </trkpt>
      <trkpt lat="42.775250" lon="-2.305067">
        <ele>1283.0</ele>
        <time>2013-04-03T15:57:52Z</time>
      </trkpt>
      <trkpt lat="42.775083" lon="-2.306400">
        <ele>1287.0</ele>
        <time>2013-04-03T15:58:02Z</time>
      </trkpt>
      <trkpt lat="42.775050" lon="-2.308000">
        <ele>1289.0</ele>
        <time>2013-04-03T15:58:12Z</time>
      </trkpt>
      <trkpt lat="42.775000" lon="-2.309583">
        <ele>1290.0</ele>
        <time>2013-04-03T15:58:22Z</time>
      </trkpt>
      <trkpt lat="42.774867" lon="-2.311167">
        <ele>1290.0</ele>
        <time>2013-04-03T15:58:32Z</time>
      </trkpt>
      <trkpt lat="42.774783" lon="-2.312700">
        <ele>1290.0</ele>
        <time>2013-04-03T15:58:42Z</time>
      </trkpt>
      <trkpt lat="42.774700" lon="-2.314367">
        <ele>1288.0</ele>
        <time>2013-04-03T15:58:52Z</time>
      </trkpt>
      <trkpt lat="42.774600" lon="-2.315867">
        <ele>1286.0</ele>
        <time>2013-04-03T15:59:02Z</time>
      </trkpt>
      <trkpt lat="42.774317" lon="-2.317317">
        <ele>1286.0</ele>
        <time>2013-04-03T15:59:12Z</time>
      </trkpt>
      <trkpt lat="42.774000" lon="-2.318067">
        <ele>1286.0</ele>
        <time>2013-04-03T15:59:22Z</time>
      </trkpt>
      <trkpt lat="42.774667" lon="-2.318517">
        <ele>1290.0</ele>
        <time>2013-04-03T15:59:32Z</time>
      </trkpt>
      <trkpt lat="42.774800" lon="-2.320217">
        <ele>1295.0</ele>
        <time>2013-04-03T15:59:42Z</time>
      </trkpt>
      <trkpt lat="42.774433" lon="-2.321317">
        <ele>1302.0</ele>
        <time>2013-04-03T15:59:52Z</time>
      </trkpt>
      <trkpt lat="42.774717" lon="-2.321300">
        <ele>1309.0</ele>
        <time>2013-04-03T16:00:02Z</time>
      </trkpt>
      <trkpt lat="42.775100" lon="-2.322783">
        <ele>1319.0</ele>
        <time>2013-04-03T16:00:12Z</time>
      </trkpt>
      <trkpt lat="42.774817" lon="-2.324100">
        <ele>1330.0</ele>
        <time>2013-04-03T16:00:22Z</time>
      </trkpt>
      <trkpt lat="42.774617" lon="-2.324150">
        <ele>1337.0</ele>
        <time>2013-04-03T16:00:32Z</time>
      </trkpt>
      <trkpt lat="42.775367" lon="-2.324233">
        <ele>1348.0</ele>
        <time>2013-04-03T16:00:42Z</time>
      </trkpt>
      <trkpt lat="42.775817" lon="-2.325600">
        <ele>1357.0</ele>
        <time>2013-04-03T16:00:52Z</time>
      </trkpt>
      <trkpt lat="42.775383" lon="-2.326250">
        <ele>1365.0</ele>
        <time>2013-04-03T16:01:02Z</time>
      </trkpt>
      <trkpt lat="42.775050" lon="-2.326267">
        <ele>1370.0</ele>
        <time>2013-04-03T16:01:12Z</time>
      </trkpt>
      <trkpt lat="42.775350" lon="-2.326000">
        <ele>1378.0</ele>
        <time>2013-04-03T16:01:22Z</time>
      </trkpt>
      <trkpt lat="42.776167" lon="-2.326967">
        <ele>1387.0</ele>
        <time>2013-04-03T16:01:32Z</time>
      </trkpt>
      <trkpt lat="42.775967" lon="-2.328050">
        <ele>1397.0</ele>
        <time>2013-04-03T16:01:42Z</time>
      </trkpt>
      <trkpt lat="42.775783" lon="-2.328150">
        <ele>1402.0</ele>
        <time>2013-04-03T16:01:52Z</time>
      </trkpt>
      <trkpt lat="42.775667" lon="-2.328133">
        <ele>1406.0</ele>
        <time>2013-04-03T16:02:02Z</time>
      </trkpt>
      <trkpt lat="42.775383" lon="-2.328383">
        <ele>1407.0</ele>
        <time>2013-04-03T16:02:12Z</time>
      </trkpt>
      <trkpt lat="42.774967" lon="-2.328883">
        <ele>1408.0</ele>
        <time>2013-04-03T16:02:22Z</time>
      </trkpt>
      <trkpt lat="42.774567" lon="-2.329517">
        <ele>1408.0</ele>
        <time>2013-04-03T16:02:32Z</time>
      </trkpt>
      <trkpt lat="42.774183" lon="-2.330000">
        <ele>1405.0</ele>
        <time>2013-04-03T16:02:42Z</time>
      </trkpt>
      <trkpt lat="42.773750" lon="-2.330400">
        <ele>1400.0</ele>
        <time>2013-04-03T16:02:52Z</time>
      </trkpt>
      <trkpt lat="42.773317" lon="-2.330850">
        <ele>1395.0</ele>
        <time>2013-04-03T16:03:02Z</time>
      </trkpt>
      <trkpt lat="42.772833" lon="-2.331550">
        <ele>1391.0</ele>
        <time>2013-04-03T16:03:13Z</time>
      </trkpt>
      <trkpt lat="42.772350" lon="-2.332167">
        <ele>1388.0</ele>
        <time>2013-04-03T16:03:23Z</time>
      </trkpt>
      <trkpt lat="42.771817" lon="-2.332867">
        <ele>1385.0</ele>
        <time>2013-04-03T16:03:33Z</time>
      </trkpt>
      <trkpt lat="42.771350" lon="-2.333550">
        <ele>1383.0</ele>
        <time>2013-04-03T16:03:43Z</time>
      </trkpt>
      <trkpt lat="42.770983" lon="-2.334133">
        <ele>1381.0</ele>
        <time>2013-04-03T16:03:53Z</time>
      </trkpt>
      <trkpt lat="42.770767" lon="-2.334800">
        <ele>1374.0</ele>
        <time>2013-04-03T16:04:03Z</time>
      </trkpt>
      <trkpt lat="42.770467" lon="-2.335200">
        <ele>1369.0</ele>
        <time>2013-04-03T16:04:13Z</time>
      </trkpt>
      <trkpt lat="42.770217" lon="-2.335517">
        <ele>1361.0</ele>
        <time>2013-04-03T16:04:23Z</time>
      </trkpt>
      <trkpt lat="42.769800" lon="-2.335983">
        <ele>1344.0</ele>
        <time>2013-04-03T16:04:33Z</time>
      </trkpt>
      <trkpt lat="42.769333" lon="-2.336667">
        <ele>1328.0</ele>
        <time>2013-04-03T16:04:43Z</time>
      </trkpt>
      <trkpt lat="42.768917" lon="-2.337367">
        <ele>1313.0</ele>
        <time>2013-04-03T16:04:53Z</time>
      </trkpt>
      <trkpt lat="42.768417" lon="-2.338083">
        <ele>1299.0</ele>
        <time>2013-04-03T16:05:03Z</time>
      </trkpt>
      <trkpt lat="42.767867" lon="-2.338650">
        <ele>1288.0</ele>
        <time>2013-04-03T16:05:13Z</time>
      </trkpt>
      <trkpt lat="42.767433" lon="-2.339100">
        <ele>1281.0</ele>
        <time>2013-04-03T16:05:23Z</time>
      </trkpt>
      <trkpt lat="42.766900" lon="-2.339467">
        <ele>1275.0</ele>
        <time>2013-04-03T16:05:33Z</time>
      </trkpt>
      <trkpt lat="42.766533" lon="-2.339633">
        <ele>1276.0</ele>
        <time>2013-04-03T16:05:43Z</time>
      </trkpt>
      <trkpt lat="42.766200" lon="-2.339733">
        <ele>1281.0</ele>
        <time>2013-04-03T16:05:53Z</time>
      </trkpt>
      <trkpt lat="42.766383" lon="-2.340900">
        <ele>1296.0</ele>
        <time>2013-04-03T16:06:03Z</time>
      </trkpt>
      <trkpt lat="42.766833" lon="-2.340833">
        <ele>1307.0</ele>
        <time>2013-04-03T16:06:13Z</time>
      </trkpt>
      <trkpt lat="42.766567" lon="-2.341100">
        <ele>1324.0</ele>
        <time>2013-04-03T16:06:23Z</time>
      </trkpt>
      <trkpt lat="42.767033" lon="-2.342517">
        <ele>1349.0</ele>
        <time>2013-04-03T16:06:33Z</time>
      </trkpt>
      <trkpt lat="42.767733" lon="-2.342483">
        <ele>1369.0</ele>
        <time>2013-04-03T16:06:43Z</time>
      </trkpt>
      <trkpt lat="42.767667" lon="-2.342733">
        <ele>1385.0</ele>
        <time>2013-04-03T16:06:53Z</time>
      </trkpt>
      <trkpt lat="42.768283" lon="-2.344117">
        <ele>1404.0</ele>
        <time>2013-04-03T16:07:03Z</time>
      </trkpt>
      <trkpt lat="42.768850" lon="-2.344133">
        <ele>1417.0</ele>
        <time>2013-04-03T16:07:13Z</time>
      </trkpt>
      <trkpt lat="42.768617" lon="-2.344817">
        <ele>1431.0</ele>
        <time>2013-04-03T16:07:23Z</time>
      </trkpt>
      <trkpt lat="42.768283" lon="-2.345817">
        <ele>1444.0</ele>
        <time>2013-04-03T16:07:33Z</time>
      </trkpt>
      <trkpt lat="42.767950" lon="-2.346817">
        <ele>1456.0</ele>
        <time>2013-04-03T16:07:43Z</time>
      </trkpt>
      <trkpt lat="42.767967" lon="-2.347050">
        <ele>1464.0</ele>
        <time>2013-04-03T16:07:53Z</time>
      </trkpt>
      <trkpt lat="42.767817" lon="-2.347350">
        <ele>1473.0</ele>
        <time>2013-04-03T16:08:03Z</time>
      </trkpt>
      <trkpt lat="42.767333" lon="-2.348233">
        <ele>1481.0</ele>
        <time>2013-04-03T16:08:13Z</time>
      </trkpt>
      <trkpt lat="42.766783" lon="-2.349133">
        <ele>1490.0</ele>
        <time>2013-04-03T16:08:23Z</time>
      </trkpt>
      <trkpt lat="42.766267" lon="-2.350017">
        <ele>1493.0</ele>
        <time>2013-04-03T16:08:33Z</time>
      </trkpt>
      <trkpt lat="42.765833" lon="-2.350800">
        <ele>1491.0</ele>
        <time>2013-04-03T16:08:43Z</time>
      </trkpt>
      <trkpt lat="42.765500" lon="-2.351633">
        <ele>1490.0</ele>
        <time>2013-04-03T16:08:53Z</time>
      </trkpt>
      <trkpt lat="42.765250" lon="-2.352450">
        <ele>1488.0</ele>
        <time>2013-04-03T16:09:03Z</time>
      </trkpt>
      <trkpt lat="42.764983" lon="-2.353233">
        <ele>1485.0</ele>
        <time>2013-04-03T16:09:13Z</time>
      </trkpt>
      <trkpt lat="42.764700" lon="-2.354067">
        <ele>1481.0</ele>
        <time>2013-04-03T16:09:23Z</time>
      </trkpt>
      <trkpt lat="42.764383" lon="-2.354850">
        <ele>1475.0</ele>
        <time>2013-04-03T16:09:33Z</time>
      </trkpt>
      <trkpt lat="42.764117" lon="-2.355733">
        <ele>1470.0</ele>
        <time>2013-04-03T16:09:43Z</time>
      </trkpt>
      <trkpt lat="42.763850" lon="-2.356667">
        <ele>1464.0</ele>
        <time>2013-04-03T16:09:53Z</time>
      </trkpt>
      <trkpt lat="42.763550" lon="-2.357567">
        <ele>1459.0</ele>
        <time>2013-04-03T16:10:03Z</time>
      </trkpt>
      <trkpt lat="42.763283" lon="-2.358283">
        <ele>1453.0</ele>
        <time>2013-04-03T16:10:13Z</time>
      </trkpt>
      <trkpt lat="42.763050" lon="-2.359050">
        <ele>1448.0</ele>
        <time>2013-04-03T16:10:23Z</time>
      </trkpt>
      <trkpt lat="42.762783" lon="-2.359617">
        <ele>1445.0</ele>
        <time>2013-04-03T16:10:33Z</time>
      </trkpt>
      <trkpt lat="42.762517" lon="-2.360033">
        <ele>1442.0</ele>
        <time>2013-04-03T16:10:43Z</time>
      </trkpt>
      <trkpt lat="42.762317" lon="-2.360383">
        <ele>1438.0</ele>
        <time>2013-04-03T16:10:53Z</time>
      </trkpt>
      <trkpt lat="42.762133" lon="-2.360483">
        <ele>1433.0</ele>
        <time>2013-04-03T16:11:03Z</time>
      </trkpt>
      <trkpt lat="42.762067" lon="-2.360633">
        <ele>1428.0</ele>
        <time>2013-04-03T16:11:13Z</time>
      </trkpt>
      <trkpt lat="42.761933" lon="-2.361100">
        <ele>1424.0</ele>
        <time>2013-04-03T16:11:24Z</time>
      </trkpt>
      <trkpt lat="42.761767" lon="-2.361417">
        <ele>1419.0</ele>
        <time>2013-04-03T16:11:34Z</time>
      </trkpt>
      <trkpt lat="42.761583" lon="-2.361600">
        <ele>1414.0</ele>
        <time>2013-04-03T16:11:44Z</time>
      </trkpt>
      <trkpt lat="42.761317" lon="-2.361900">
        <ele>1407.0</ele>
        <time>2013-04-03T16:11:54Z</time>
      </trkpt>
      <trkpt lat="42.760983" lon="-2.362283">
        <ele>1400.0</ele>
        <time>2013-04-03T16:12:04Z</time>
      </trkpt>
      <trkpt lat="42.760683" lon="-2.362567">
        <ele>1393.0</ele>
        <time>2013-04-03T16:12:14Z</time>
      </trkpt>
      <trkpt lat="42.760483" lon="-2.362767">
        <ele>1387.0</ele>
        <time>2013-04-03T16:12:24Z</time>
      </trkpt>
      <trkpt lat="42.760350" lon="-2.362900">
        <ele>1385.0</ele>
        <time>2013-04-03T16:12:34Z</time>
      </trkpt>
      <trkpt lat="42.760133" lon="-2.363117">
        <ele>1383.0</ele>
        <time>2013-04-03T16:12:44Z</time>
      </trkpt>
      <trkpt lat="42.759783" lon="-2.363500">
        <ele>1380.0</ele>
        <time>2013-04-03T16:12:54Z</time>
      </trkpt>
      <trkpt lat="42.759367" lon="-2.363583">
        <ele>1380.0</ele>
        <time>2013-04-03T16:13:04Z</time>
      </trkpt>
      <trkpt lat="42.758983" lon="-2.363800">
        <ele>1383.0</ele>
        <time>2013-04-03T16:13:14Z</time>
      </trkpt>
      <trkpt lat="42.758650" lon="-2.364050">
        <ele>1385.0</ele>
        <time>2013-04-03T16:13:24Z</time>
      </trkpt>
      <trkpt lat="42.758183" lon="-2.364183">
        <ele>1387.0</ele>
        <time>2013-04-03T16:13:34Z</time>
      </trkpt>
      <trkpt lat="42.757900" lon="-2.364383">
        <ele>1391.0</ele>
        <time>2013-04-03T16:13:44Z</time>
      </trkpt>
      <trkpt lat="42.757617" lon="-2.364633">
        <ele>1396.0</ele>
        <time>2013-04-03T16:13:54Z</time>
      </trkpt>
      <trkpt lat="42.757383" lon="-2.365017">
        <ele>1402.0</ele>
        <time>2013-04-03T16:14:04Z</time>
      </trkpt>
      <trkpt lat="42.757183" lon="-2.365217">
        <ele>1409.0</ele>
        <time>2013-04-03T16:14:14Z</time>
      </trkpt>
      <trkpt lat="42.757017" lon="-2.365350">
        <ele>1415.0</ele>
        <time>2013-04-03T16:14:24Z</time>
      </trkpt>
      <trkpt lat="42.756900" lon="-2.365467">
        <ele>1420.0</ele>
        <time>2013-04-03T16:14:34Z</time>
      </trkpt>
      <trkpt lat="42.756733" lon="-2.365583">
        <ele>1424.0</ele>
        <time>2013-04-03T16:14:44Z</time>
      </trkpt>
      <trkpt lat="42.756650" lon="-2.365767">
        <ele>1427.0</ele>
        <time>2013-04-03T16:14:54Z</time>
      </trkpt>
      <trkpt lat="42.756633" lon="-2.365967">
        <ele>1427.0</ele>
        <time>2013-04-03T16:15:04Z</time>
      </trkpt>
      <trkpt lat="42.756617" lon="-2.366033">
        <ele>1426.0</ele>
        <time>2013-04-03T16:15:14Z</time>
      </trkpt>
      <trkpt lat="42.756567" lon="-2.366067">
        <ele>1425.0</ele>
        <time>2013-04-03T16:15:24Z</time>
      </trkpt>
      <trkpt lat="42.756550" lon="-2.366067">
        <ele>1422.0</ele>
        <time>2013-04-03T16:15:34Z</time>
      </trkpt>
      <trkpt lat="42.756583" lon="-2.366033">
        <ele>1418.0</ele>
        <time>2013-04-03T16:15:44Z</time>
      </trkpt>
      <trkpt lat="42.756550" lon="-2.366117">
        <ele>1411.0</ele>
        <time>2013-04-03T16:15:54Z</time>
      </trkpt>
      <trkpt lat="42.756417" lon="-2.366300">
        <ele>1404.0</ele>
        <time>2013-04-03T16:16:04Z</time>
      </trkpt>
      <trkpt lat="42.756200" lon="-2.366567">
        <ele>1399.0</ele>
        <time>2013-04-03T16:16:14Z</time>
      </trkpt>
      <trkpt lat="42.756067" lon="-2.366800">
        <ele>1394.0</ele>
        <time>2013-04-03T16:16:24Z</time>
      </trkpt>
      <trkpt lat="42.756083" lon="-2.367033">
        <ele>1392.0</ele>
        <time>2013-04-03T16:16:34Z</time>
      </trkpt>
      <trkpt lat="42.756200" lon="-2.367383">
        <ele>1390.0</ele>
        <time>2013-04-03T16:16:44Z</time>
      </trkpt>
      <trkpt lat="42.756200" lon="-2.367717">
        <ele>1387.0</ele>
        <time>2013-04-03T16:16:54Z</time>
      </trkpt>
      <trkpt lat="42.756333" lon="-2.367917">
        <ele>1384.0</ele>
        <time>2013-04-03T16:17:04Z</time>
      </trkpt>
      <trkpt lat="42.756300" lon="-2.367767">
        <ele>1380.0</ele>
        <time>2013-04-03T16:17:14Z</time>
      </trkpt>
      <trkpt lat="42.756333" lon="-2.367733">
        <ele>1378.0</ele>
        <time>2013-04-03T16:17:24Z</time>
      </trkpt>
      <trkpt lat="42.756400" lon="-2.367750">
        <ele>1375.0</ele>
        <time>2013-04-03T16:17:34Z</time>
      </trkpt>
      <trkpt lat="42.756467" lon="-2.367750">
        <ele>1373.0</ele>
        <time>2013-04-03T16:17:44Z</time>
      </trkpt>
      <trkpt lat="42.756533" lon="-2.367800">
        <ele>1370.0</ele>
        <time>2013-04-03T16:17:54Z</time>
      </trkpt>
      <trkpt lat="42.756550" lon="-2.367867">
        <ele>1368.0</ele>
        <time>2013-04-03T16:18:04Z</time>
      </trkpt>
      <trkpt lat="42.756600" lon="-2.367983">
        <ele>1366.0</ele>
        <time>2013-04-03T16:18:14Z</time>
      </trkpt>
      <trkpt lat="42.756533" lon="-2.368233">
        <ele>1365.0</ele>
        <time>2013-04-03T16:18:24Z</time>
      </trkpt>
      <trkpt lat="42.756483" lon="-2.368533">
        <ele>1362.0</ele>
        <time>2013-04-03T16:18:34Z</time>
      </trkpt>
      <trkpt lat="42.756267" lon="-2.368750">
        <ele>1360.0</ele>
        <time>2013-04-03T16:18:44Z</time>
      </trkpt>
      <trkpt lat="42.755917" lon="-2.368917">
        <ele>1361.0</ele>
        <time>2013-04-03T16:18:55Z</time>
      </trkpt>
      <trkpt lat="42.755817" lon="-2.368983">
        <ele>1365.0</ele>
        <time>2013-04-03T16:19:05Z</time>
      </trkpt>
      <trkpt lat="42.755750" lon="-2.368950">
        <ele>1370.0</ele>
        <time>2013-04-03T16:19:15Z</time>
      </trkpt>
      <trkpt lat="42.755717" lon="-2.369067">
        <ele>1372.0</ele>
        <time>2013-04-03T16:19:25Z</time>
      </trkpt>
      <trkpt lat="42.755467" lon="-2.369167">
        <ele>1373.0</ele>
        <time>2013-04-03T16:19:35Z</time>
      </trkpt>
      <trkpt lat="42.755433" lon="-2.368833">
        <ele>1374.0</ele>
        <time>2013-04-03T16:19:45Z</time>
      </trkpt>
      <trkpt lat="42.755717" lon="-2.368250">
        <ele>1373.0</ele>
        <time>2013-04-03T16:19:55Z</time>
      </trkpt>
      <trkpt lat="42.756133" lon="-2.367600">
        <ele>1372.0</ele>
        <time>2013-04-03T16:20:05Z</time>
      </trkpt>
      <trkpt lat="42.756717" lon="-2.367000">
        <ele>1366.0</ele>
        <time>2013-04-03T16:20:15Z</time>
      </trkpt>
      <trkpt lat="42.757300" lon="-2.366367">
        <ele>1362.0</ele>
        <time>2013-04-03T16:20:25Z</time>
      </trkpt>
      <trkpt lat="42.757683" lon="-2.365800">
        <ele>1363.0</ele>
        <time>2013-04-03T16:20:35Z</time>
      </trkpt>
      <trkpt lat="42.758267" lon="-2.365333">
        <ele>1368.0</ele>
        <time>2013-04-03T16:20:45Z</time>
      </trkpt>
      <trkpt lat="42.758983" lon="-2.365083">
        <ele>1375.0</ele>
        <time>2013-04-03T16:20:55Z</time>
      </trkpt>
      <trkpt lat="42.759533" lon="-2.364833">
        <ele>1379.0</ele>
        <time>2013-04-03T16:21:05Z</time>
      </trkpt>
      <trkpt lat="42.760217" lon="-2.364650">
        <ele>1384.0</ele>
        <time>2013-04-03T16:21:15Z</time>
      </trkpt>
      <trkpt lat="42.761250" lon="-2.364667">
        <ele>1389.0</ele>
        <time>2013-04-03T16:21:25Z</time>
      </trkpt>
      <trkpt lat="42.762433" lon="-2.364833">
        <ele>1394.0</ele>
        <time>2013-04-03T16:21:35Z</time>
      </trkpt>
      <trkpt lat="42.763633" lon="-2.365117">
        <ele>1397.0</ele>
        <time>2013-04-03T16:21:45Z</time>
      </trkpt>
      <trkpt lat="42.764850" lon="-2.365400">
        <ele>1397.0</ele>
        <time>2013-04-03T16:21:55Z</time>
      </trkpt>
      <trkpt lat="42.766100" lon="-2.365700">
        <ele>1392.0</ele>
        <time>2013-04-03T16:22:05Z</time>
      </trkpt>
      <trkpt lat="42.767367" lon="-2.366017">
        <ele>1382.0</ele>
        <time>2013-04-03T16:22:15Z</time>
      </trkpt>
      <trkpt lat="42.768517" lon="-2.366367">
        <ele>1368.0</ele>
        <time>2013-04-03T16:22:25Z</time>
      </trkpt>
      <trkpt lat="42.769633" lon="-2.366767">
        <ele>1352.0</ele>
        <time>2013-04-03T16:22:35Z</time>
      </trkpt>
      <trkpt lat="42.770800" lon="-2.367017">
        <ele>1337.0</ele>
        <time>2013-04-03T16:22:45Z</time>
      </trkpt>
      <trkpt lat="42.771983" lon="-2.367383">
        <ele>1322.0</ele>
        <time>2013-04-03T16:22:55Z</time>
      </trkpt>
      <trkpt lat="42.773083" lon="-2.367600">
        <ele>1309.0</ele>
        <time>2013-04-03T16:23:05Z</time>
      </trkpt>
      <trkpt lat="42.774233" lon="-2.367783">
        <ele>1295.0</ele>
        <time>2013-04-03T16:23:15Z</time>
      </trkpt>
      <trkpt lat="42.775317" lon="-2.367883">
        <ele>1281.0</ele>
        <time>2013-04-03T16:23:25Z</time>
      </trkpt>
      <trkpt lat="42.776433" lon="-2.368017">
        <ele>1265.0</ele>
        <time>2013-04-03T16:23:35Z</time>
      </trkpt>
      <trkpt lat="42.777450" lon="-2.367883">
        <ele>1250.0</ele>
        <time>2013-04-03T16:23:45Z</time>
      </trkpt>
      <trkpt lat="42.778450" lon="-2.367550">
        <ele>1238.0</ele>
        <time>2013-04-03T16:23:55Z</time>
      </trkpt>
      <trkpt lat="42.779650" lon="-2.367150">
        <ele>1224.0</ele>
        <time>2013-04-03T16:24:05Z</time>
      </trkpt>
      <trkpt lat="42.780783" lon="-2.366767">
        <ele>1209.0</ele>
        <time>2013-04-03T16:24:15Z</time>
      </trkpt>
      <trkpt lat="42.781467" lon="-2.366333">
        <ele>1192.0</ele>
        <time>2013-04-03T16:24:25Z</time>
      </trkpt>
      <trkpt lat="42.781683" lon="-2.365950">
        <ele>1179.0</ele>
        <time>2013-04-03T16:24:35Z</time>
      </trkpt>
      <trkpt lat="42.781767" lon="-2.365817">
        <ele>1159.0</ele>
        <time>2013-04-03T16:24:45Z</time>
      </trkpt>
      <trkpt lat="42.781700" lon="-2.365500">
        <ele>1143.0</ele>
        <time>2013-04-03T16:24:55Z</time>
      </trkpt>
      <trkpt lat="42.781633" lon="-2.365550">
        <ele>1120.0</ele>
        <time>2013-04-03T16:25:05Z</time>
      </trkpt>
      <trkpt lat="42.781700" lon="-2.365617">
        <ele>1097.0</ele>
        <time>2013-04-03T16:25:15Z</time>
      </trkpt>
      <trkpt lat="42.781700" lon="-2.366050">
        <ele>1087.0</ele>
        <time>2013-04-03T16:25:25Z</time>
      </trkpt>
      <trkpt lat="42.781700" lon="-2.366150">
        <ele>1063.0</ele>
        <time>2013-04-03T16:25:35Z</time>
      </trkpt>
      <trkpt lat="42.781733" lon="-2.366183">
        <ele>1039.0</ele>
        <time>2013-04-03T16:25:45Z</time>
      </trkpt>
      <trkpt lat="42.781733" lon="-2.366200">
        <ele>1019.0</ele>
        <time>2013-04-03T16:25:55Z</time>
      </trkpt>
      <trkpt lat="42.781750" lon="-2.366217">
        <ele>1003.0</ele>
        <time>2013-04-03T16:26:05Z</time>
      </trkpt>
      <trkpt lat="42.781750" lon="-2.366217">
        <ele>991.0</ele>
        <time>2013-04-03T16:26:15Z</time>
      </trkpt>
    </trkseg>
  </trk>
</gpx>
